sensor_id;sensor_type;location;lat;lon;timestamp;temperature;humidity
13496;DHT22;6820;49.374;8.452;2022-08-19T00:01:37;22.70;99.99
13496;DHT22;6820;49.374;8.452;2022-08-19T00:05:40;22.69;99.99
13496;DHT22;6820;49.374;8.452;2022-08-19T00:09:42;22.67;99.99
13496;DHT22;6820;49.374;8.452;2022-08-19T00:13:44;22.66;99.99
13496;DHT22;6820;49.374;8.452;2022-08-19T00:17:49;22.63;99.99
13496;DHT22;6820;49.374;8.452;2022-08-19T00:21:51;22.60;99.99
13496;DHT22;6820;49.374;8.452;2022-08-19T00:25:53;22.59;99.99
13496;DHT22;6820;49.374;8.452;2022-08-19T00:29:54;22.60;99.99
13496;DHT22;6820;49.374;8.452;2022-08-19T00:33:56;22.59;99.99
13496;DHT22;6820;49.374;8.452;2022-08-19T00:37:58;22.59;99.99
13496;DHT22;6820;49.374;8.452;2022-08-19T00:42:00;22.54;99.99
13496;DHT22;6820;49.374;8.452;2022-08-19T00:46:02;22.52;99.99
13496;DHT22;6820;49.374;8.452;2022-08-19T00:50:06;22.48;99.99
13496;DHT22;6820;49.374;8.452;2022-08-19T00:54:09;22.46;99.99
13496;DHT22;6820;49.374;8.452;2022-08-19T00:58:12;22.45;99.99
13496;DHT22;6820;49.374;8.452;2022-08-19T01:02:16;22.45;99.99
13496;DHT22;6820;49.374;8.452;2022-08-19T01:06:18;22.45;99.99
13496;DHT22;6820;49.374;8.452;2022-08-19T01:10:23;22.44;99.99
13496;DHT22;6820;49.374;8.452;2022-08-19T01:14:31;22.44;99.99
13496;DHT22;6820;49.374;8.452;2022-08-19T01:18:38;22.42;99.99
13496;DHT22;6820;49.374;8.452;2022-08-19T01:22:46;22.41;99.99
13496;DHT22;6820;49.374;8.452;2022-08-19T01:26:52;22.45;99.99
13496;DHT22;6820;49.374;8.452;2022-08-19T01:30:54;22.48;99.99
13496;DHT22;6820;49.374;8.452;2022-08-19T01:34:56;22.45;99.99
13496;DHT22;6820;49.374;8.452;2022-08-19T01:38:58;22.45;99.99
13496;DHT22;6820;49.374;8.452;2022-08-19T01:43:02;22.41;99.99
13496;DHT22;6820;49.374;8.452;2022-08-19T01:47:04;22.42;99.99
13496;DHT22;6820;49.374;8.452;2022-08-19T01:51:07;22.41;99.99
13496;DHT22;6820;49.374;8.452;2022-08-19T01:55:11;22.36;99.99
13496;DHT22;6820;49.374;8.452;2022-08-19T01:59:16;22.35;99.99
13496;DHT22;6820;49.374;8.452;2022-08-19T02:03:19;22.33;99.99
13496;DHT22;6820;49.374;8.452;2022-08-19T02:07:21;22.30;99.99
13496;DHT22;6820;49.374;8.452;2022-08-19T02:11:41;22.33;99.99
13496;DHT22;6820;49.374;8.452;2022-08-19T02:15:42;22.35;99.99
13496;DHT22;6820;49.374;8.452;2022-08-19T02:19:44;22.33;99.99
13496;DHT22;6820;49.374;8.452;2022-08-19T02:23:46;22.31;99.99
13496;DHT22;6820;49.374;8.452;2022-08-19T02:27:48;22.33;99.99
13496;DHT22;6820;49.374;8.452;2022-08-19T02:31:50;22.39;99.99
13496;DHT22;6820;49.374;8.452;2022-08-19T02:35:52;22.45;99.99
13496;DHT22;6820;49.374;8.452;2022-08-19T02:39:54;22.45;99.99
13496;DHT22;6820;49.374;8.452;2022-08-19T02:43:56;22.44;99.99
13496;DHT22;6820;49.374;8.452;2022-08-19T02:48:19;22.39;99.99
13496;DHT22;6820;49.374;8.452;2022-08-19T02:52:22;22.39;99.99
13496;DHT22;6820;49.374;8.452;2022-08-19T02:56:24;22.39;99.99
13496;DHT22;6820;49.374;8.452;2022-08-19T03:00:28;22.41;99.99
13496;DHT22;6820;49.374;8.452;2022-08-19T03:04:29;22.41;99.99
13496;DHT22;6820;49.374;8.452;2022-08-19T03:08:31;22.31;99.99
13496;DHT22;6820;49.374;8.452;2022-08-19T03:12:35;22.27;99.99
13496;DHT22;6820;49.374;8.452;2022-08-19T03:16:45;22.26;99.99
13496;DHT22;6820;49.374;8.452;2022-08-19T03:20:49;22.20;99.99
13496;DHT22;6820;49.374;8.452;2022-08-19T03:24:54;22.19;99.99
13496;DHT22;6820;49.374;8.452;2022-08-19T03:28:55;22.12;99.99
13496;DHT22;6820;49.374;8.452;2022-08-19T03:32:59;22.08;99.99
13496;DHT22;6820;49.374;8.452;2022-08-19T03:37:03;22.02;99.99
13496;DHT22;6820;49.374;8.452;2022-08-19T03:41:09;21.93;99.99
13496;DHT22;6820;49.374;8.452;2022-08-19T03:45:14;21.86;99.99
13496;DHT22;6820;49.374;8.452;2022-08-19T03:49:15;21.82;99.99
13496;DHT22;6820;49.374;8.452;2022-08-19T03:53:18;21.82;99.99
13496;DHT22;6820;49.374;8.452;2022-08-19T03:57:20;21.82;99.99
13496;DHT22;6820;49.374;8.452;2022-08-19T04:01:31;21.81;99.99
13496;DHT22;6820;49.374;8.452;2022-08-19T04:05:35;21.82;99.99
13496;DHT22;6820;49.374;8.452;2022-08-19T04:09:39;21.79;99.99
13496;DHT22;6820;49.374;8.452;2022-08-19T04:13:40;21.77;99.99
13496;DHT22;6820;49.374;8.452;2022-08-19T04:17:43;21.79;99.99
13496;DHT22;6820;49.374;8.452;2022-08-19T04:21:46;21.77;99.99
13496;DHT22;6820;49.374;8.452;2022-08-19T04:25:50;21.73;99.99
13496;DHT22;6820;49.374;8.452;2022-08-19T04:29:52;21.68;99.99
13496;DHT22;6820;49.374;8.452;2022-08-19T04:33:59;21.68;99.99
13496;DHT22;6820;49.374;8.452;2022-08-19T04:38:03;21.68;99.99
13496;DHT22;6820;49.374;8.452;2022-08-19T04:42:05;21.67;99.99
13496;DHT22;6820;49.374;8.452;2022-08-19T04:46:31;21.67;99.99
13496;DHT22;6820;49.374;8.452;2022-08-19T04:50:51;21.73;99.99
13496;DHT22;6820;49.374;8.452;2022-08-19T04:54:58;21.74;99.99
13496;DHT22;6820;49.374;8.452;2022-08-19T04:59:00;21.75;99.99
13496;DHT22;6820;49.374;8.452;2022-08-19T05:03:05;21.82;99.99
13496;DHT22;6820;49.374;8.452;2022-08-19T05:07:08;21.85;99.99
13496;DHT22;6820;49.374;8.452;2022-08-19T05:11:11;21.93;99.99
13496;DHT22;6820;49.374;8.452;2022-08-19T05:15:17;22.01;99.99
13496;DHT22;6820;49.374;8.452;2022-08-19T05:19:20;22.05;99.99
13496;DHT22;6820;49.374;8.452;2022-08-19T05:23:40;22.09;99.99
13496;DHT22;6820;49.374;8.452;2022-08-19T05:27:42;22.09;99.99
13496;DHT22;6820;49.374;8.452;2022-08-19T05:31:43;22.14;99.99
13496;DHT22;6820;49.374;8.452;2022-08-19T05:35:46;22.21;99.99
13496;DHT22;6820;49.374;8.452;2022-08-19T05:39:49;22.26;99.99
13496;DHT22;6820;49.374;8.452;2022-08-19T05:43:52;22.33;99.99
13496;DHT22;6820;49.374;8.452;2022-08-19T05:47:53;22.38;99.99
13496;DHT22;6820;49.374;8.452;2022-08-19T05:51:55;22.44;99.99
13496;DHT22;6820;49.374;8.452;2022-08-19T05:55:57;22.48;99.99
13496;DHT22;6820;49.374;8.452;2022-08-19T05:59:59;22.52;99.99
13496;DHT22;6820;49.374;8.452;2022-08-19T06:04:12;22.57;99.99
13496;DHT22;6820;49.374;8.452;2022-08-19T06:08:19;22.60;99.99
13496;DHT22;6820;49.374;8.452;2022-08-19T06:12:35;22.64;99.99
13496;DHT22;6820;49.374;8.452;2022-08-19T06:16:37;22.69;99.99
13496;DHT22;6820;49.374;8.452;2022-08-19T06:20:40;22.72;99.99
13496;DHT22;6820;49.374;8.452;2022-08-19T06:24:56;22.79;99.99
13496;DHT22;6820;49.374;8.452;2022-08-19T06:28:57;22.82;99.99
13496;DHT22;6820;49.374;8.452;2022-08-19T06:32:59;22.84;99.99
13496;DHT22;6820;49.374;8.452;2022-08-19T06:37:01;23.11;99.99
13496;DHT22;6820;49.374;8.452;2022-08-19T06:41:04;22.89;99.99
13496;DHT22;6820;49.374;8.452;2022-08-19T06:45:08;22.96;99.99
13496;DHT22;6820;49.374;8.452;2022-08-19T06:49:10;22.96;99.99
13496;DHT22;6820;49.374;8.452;2022-08-19T06:53:15;22.96;99.99
13496;DHT22;6820;49.374;8.452;2022-08-19T06:57:16;22.97;99.99
13496;DHT22;6820;49.374;8.452;2022-08-19T07:01:19;22.99;99.99
13496;DHT22;6820;49.374;8.452;2022-08-19T07:05:21;23.04;99.99
13496;DHT22;6820;49.374;8.452;2022-08-19T07:09:23;23.14;99.99
13496;DHT22;6820;49.374;8.452;2022-08-19T07:13:25;23.19;99.99
13496;DHT22;6820;49.374;8.452;2022-08-19T07:17:27;23.25;99.99
13496;DHT22;6820;49.374;8.452;2022-08-19T07:21:28;23.34;99.99
13496;DHT22;6820;49.374;8.452;2022-08-19T07:25:30;23.44;99.99
13496;DHT22;6820;49.374;8.452;2022-08-19T07:29:34;23.53;99.99
13496;DHT22;6820;49.374;8.452;2022-08-19T07:33:38;23.63;99.99
13496;DHT22;6820;49.374;8.452;2022-08-19T07:37:41;23.68;99.99
13496;DHT22;6820;49.374;8.452;2022-08-19T07:41:45;23.69;99.99
13496;DHT22;6820;49.374;8.452;2022-08-19T07:45:47;23.74;99.99
13496;DHT22;6820;49.374;8.452;2022-08-19T07:49:49;23.86;99.99
13496;DHT22;6820;49.374;8.452;2022-08-19T07:53:50;23.92;99.99
13496;DHT22;6820;49.374;8.452;2022-08-19T07:57:52;24.04;99.99
13496;DHT22;6820;49.374;8.452;2022-08-19T08:01:55;24.15;99.99
13496;DHT22;6820;49.374;8.452;2022-08-19T08:05:58;24.29;99.99
13496;DHT22;6820;49.374;8.452;2022-08-19T08:10:18;24.41;99.99
13496;DHT22;6820;49.374;8.452;2022-08-19T08:14:24;24.60;99.99
13496;DHT22;6820;49.374;8.452;2022-08-19T08:18:30;24.80;99.99
13496;DHT22;6820;49.374;8.452;2022-08-19T08:22:32;24.89;99.99
13496;DHT22;6820;49.374;8.452;2022-08-19T08:26:54;25.05;99.99
13496;DHT22;6820;49.374;8.452;2022-08-19T08:30:58;25.05;99.99
13496;DHT22;6820;49.374;8.452;2022-08-19T08:35:00;25.04;99.99
13496;DHT22;6820;49.374;8.452;2022-08-19T08:39:02;25.04;99.99
13496;DHT22;6820;49.374;8.452;2022-08-19T08:43:06;25.07;99.99
13496;DHT22;6820;49.374;8.452;2022-08-19T08:47:12;25.19;99.99
13496;DHT22;6820;49.374;8.452;2022-08-19T08:51:18;25.31;99.99
13496;DHT22;6820;49.374;8.452;2022-08-19T08:55:26;25.49;99.99
13496;DHT22;6820;49.374;8.452;2022-08-19T08:59:38;25.69;99.99
13496;DHT22;6820;49.374;8.452;2022-08-19T09:03:42;26.00;99.99
13496;DHT22;6820;49.374;8.452;2022-08-19T09:08:07;26.28;99.99
13496;DHT22;6820;49.374;8.452;2022-08-19T09:16:27;26.13;99.99
13496;DHT22;6820;49.374;8.452;2022-08-19T09:20:30;26.11;99.99
13496;DHT22;6820;49.374;8.452;2022-08-19T09:24:33;26.24;99.99
13496;DHT22;6820;49.374;8.452;2022-08-19T09:28:35;26.38;99.99
13496;DHT22;6820;49.374;8.452;2022-08-19T09:32:39;26.60;99.99
13496;DHT22;6820;49.374;8.452;2022-08-19T09:36:43;26.87;99.53
13496;DHT22;6820;49.374;8.452;2022-08-19T09:40:44;26.98;98.49
13496;DHT22;6820;49.374;8.452;2022-08-19T09:44:46;26.96;98.15
13496;DHT22;6820;49.374;8.452;2022-08-19T09:48:48;27.02;98.20
13496;DHT22;6820;49.374;8.452;2022-08-19T09:52:51;27.33;97.75
13496;DHT22;6820;49.374;8.452;2022-08-19T09:56:58;27.52;97.80
13496;DHT22;6820;49.374;8.452;2022-08-19T10:01:05;27.46;98.05
13496;DHT22;6820;49.374;8.452;2022-08-19T10:05:08;27.59;97.21
13496;DHT22;6820;49.374;8.452;2022-08-19T10:09:28;27.71;97.76
13496;DHT22;6820;49.374;8.452;2022-08-19T10:13:35;27.88;95.68
13496;DHT22;6820;49.374;8.452;2022-08-19T10:17:37;27.99;95.64
13496;DHT22;6820;49.374;8.452;2022-08-19T10:21:38;27.96;95.39
13496;DHT22;6820;49.374;8.452;2022-08-19T10:25:41;27.93;95.44
13496;DHT22;6820;49.374;8.452;2022-08-19T10:29:43;27.99;93.27
13496;DHT22;6820;49.374;8.452;2022-08-19T10:33:47;28.14;92.43
13496;DHT22;6820;49.374;8.452;2022-08-19T10:37:54;28.36;93.02
13496;DHT22;6820;49.374;8.452;2022-08-19T10:42:05;28.65;92.09
13496;DHT22;6820;49.374;8.452;2022-08-19T10:46:08;28.74;92.34
13496;DHT22;6820;49.374;8.452;2022-08-19T10:50:16;28.35;92.69
13496;DHT22;6820;49.374;8.452;2022-08-19T10:54:38;28.32;92.09
13496;DHT22;6820;49.374;8.452;2022-08-19T10:59:05;28.45;91.89
13496;DHT22;6820;49.374;8.452;2022-08-19T11:03:07;28.46;91.46
13496;DHT22;6820;49.374;8.452;2022-08-19T11:07:10;28.55;90.66
13496;DHT22;6820;49.374;8.452;2022-08-19T11:11:12;28.70;91.35
13496;DHT22;6820;49.374;8.452;2022-08-19T11:15:14;28.73;90.81
13496;DHT22;6820;49.374;8.452;2022-08-19T11:19:17;28.38;91.51
13496;DHT22;6820;49.374;8.452;2022-08-19T11:23:20;28.35;92.38
13496;DHT22;6820;49.374;8.452;2022-08-19T11:27:22;28.13;91.99
13496;DHT22;6820;49.374;8.452;2022-08-19T11:31:24;28.33;91.64
13496;DHT22;6820;49.374;8.452;2022-08-19T11:35:29;28.23;89.42
13496;DHT22;6820;49.374;8.452;2022-08-19T11:39:31;28.38;89.52
13496;DHT22;6820;49.374;8.452;2022-08-19T11:43:34;28.54;89.03
13496;DHT22;6820;49.374;8.452;2022-08-19T11:47:38;28.73;88.49
13496;DHT22;6820;49.374;8.452;2022-08-19T11:51:40;28.67;86.68
13496;DHT22;6820;49.374;8.452;2022-08-19T11:55:46;28.79;83.56
13496;DHT22;6820;49.374;8.452;2022-08-19T11:59:50;29.00;83.81
13496;DHT22;6820;49.374;8.452;2022-08-19T12:03:54;29.17;83.48
13496;DHT22;6820;49.374;8.452;2022-08-19T12:07:57;29.25;81.37
13496;DHT22;6820;49.374;8.452;2022-08-19T12:11:58;29.33;81.47
13496;DHT22;6820;49.374;8.452;2022-08-19T12:16:00;29.47;80.88
13496;DHT22;6820;49.374;8.452;2022-08-19T12:20:08;29.67;80.44
13496;DHT22;6820;49.374;8.452;2022-08-19T12:24:12;29.74;80.21
13496;DHT22;6820;49.374;8.452;2022-08-19T12:28:14;29.89;78.34
13496;DHT22;6820;49.374;8.452;2022-08-19T12:32:16;29.44;79.72
13496;DHT22;6820;49.374;8.452;2022-08-19T12:36:18;29.70;79.16
13496;DHT22;6820;49.374;8.452;2022-08-19T12:40:19;30.08;78.83
13496;DHT22;6820;49.374;8.452;2022-08-19T12:44:21;30.04;78.00
13496;DHT22;6820;49.374;8.452;2022-08-19T12:48:30;30.04;77.02
13496;DHT22;6820;49.374;8.452;2022-08-19T12:52:35;30.16;76.33
13496;DHT22;6820;49.374;8.452;2022-08-19T12:56:41;30.45;76.29
13496;DHT22;6820;49.374;8.452;2022-08-19T13:00:43;30.73;75.96
13496;DHT22;6820;49.374;8.452;2022-08-19T13:04:45;30.82;75.14
13496;DHT22;6820;49.374;8.452;2022-08-19T13:08:47;31.05;75.14
13496;DHT22;6820;49.374;8.452;2022-08-19T13:12:50;31.38;74.22
13496;DHT22;6820;49.374;8.452;2022-08-19T13:16:52;31.47;73.85
13496;DHT22;6820;49.374;8.452;2022-08-19T13:20:54;31.56;73.17
13496;DHT22;6820;49.374;8.452;2022-08-19T13:24:55;31.62;73.27
13496;DHT22;6820;49.374;8.452;2022-08-19T13:28:58;31.88;72.84
13496;DHT22;6820;49.374;8.452;2022-08-19T13:33:18;32.12;73.19
13496;DHT22;6820;49.374;8.452;2022-08-19T13:37:20;32.47;71.89
13496;DHT22;6820;49.374;8.452;2022-08-19T13:41:45;32.16;71.75
13496;DHT22;6820;49.374;8.452;2022-08-19T13:45:51;31.95;72.38
13496;DHT22;6820;49.374;8.452;2022-08-19T13:49:56;31.91;73.19
13496;DHT22;6820;49.374;8.452;2022-08-19T13:53:58;31.92;72.22
13496;DHT22;6820;49.374;8.452;2022-08-19T13:58:00;31.97;72.02
13496;DHT22;6820;49.374;8.452;2022-08-19T14:02:03;32.19;71.92
13496;DHT22;6820;49.374;8.452;2022-08-19T14:06:06;32.25;71.50
13496;DHT22;6820;49.374;8.452;2022-08-19T14:10:11;32.39;70.90
13496;DHT22;6820;49.374;8.452;2022-08-19T14:14:14;32.34;71.46
13496;DHT22;6820;49.374;8.452;2022-08-19T14:18:17;32.43;70.71
13496;DHT22;6820;49.374;8.452;2022-08-19T14:22:19;32.28;71.36
13496;DHT22;6820;49.374;8.452;2022-08-19T14:26:22;32.36;70.32
13496;DHT22;6820;49.374;8.452;2022-08-19T14:30:26;32.36;71.46
13496;DHT22;6820;49.374;8.452;2022-08-19T14:34:29;32.25;71.66
13496;DHT22;6820;49.374;8.452;2022-08-19T14:38:32;32.35;70.71
13496;DHT22;6820;49.374;8.452;2022-08-19T14:42:34;32.46;70.78
13496;DHT22;6820;49.374;8.452;2022-08-19T14:46:37;32.39;70.97
13496;DHT22;6820;49.374;8.452;2022-08-19T14:50:39;32.39;71.17
13496;DHT22;6820;49.374;8.452;2022-08-19T14:54:40;32.43;70.19
13496;DHT22;6820;49.374;8.452;2022-08-19T14:58:42;32.19;71.26
13496;DHT22;6820;49.374;8.452;2022-08-19T15:02:44;32.06;71.20
13496;DHT22;6820;49.374;8.452;2022-08-19T15:06:46;31.91;71.04
13496;DHT22;6820;49.374;8.452;2022-08-19T15:10:47;31.82;71.83
13496;DHT22;6820;49.374;8.452;2022-08-19T15:14:50;31.69;72.16
13496;DHT22;6820;49.374;8.452;2022-08-19T15:18:57;31.60;72.16
13496;DHT22;6820;49.374;8.452;2022-08-19T15:23:00;31.54;71.80
13496;DHT22;6820;49.374;8.452;2022-08-19T15:27:02;31.50;71.80
13496;DHT22;6820;49.374;8.452;2022-08-19T15:31:04;31.32;72.28
13496;DHT22;6820;49.374;8.452;2022-08-19T15:35:06;31.07;72.71
13496;DHT22;6820;49.374;8.452;2022-08-19T15:39:08;30.90;73.34
13496;DHT22;6820;49.374;8.452;2022-08-19T15:43:10;30.85;73.54
13496;DHT22;6820;49.374;8.452;2022-08-19T15:47:12;30.85;73.57
13496;DHT22;6820;49.374;8.452;2022-08-19T15:51:14;30.86;73.08
13496;DHT22;6820;49.374;8.452;2022-08-19T15:55:17;31.03;73.38
13496;DHT22;6820;49.374;8.452;2022-08-19T15:59:35;31.40;72.45
13496;DHT22;6820;49.374;8.452;2022-08-19T16:04:00;31.52;72.97
13496;DHT22;6820;49.374;8.452;2022-08-19T16:08:20;31.54;72.48
13496;DHT22;6820;49.374;8.452;2022-08-19T16:12:22;31.46;72.68
13496;DHT22;6820;49.374;8.452;2022-08-19T16:16:28;31.25;73.27
13496;DHT22;6820;49.374;8.452;2022-08-19T16:20:34;31.27;73.89
13496;DHT22;6820;49.374;8.452;2022-08-19T16:24:36;31.23;73.21
13496;DHT22;6820;49.374;8.452;2022-08-19T16:28:39;31.12;73.11
13496;DHT22;6820;49.374;8.452;2022-08-19T16:32:41;30.90;73.01
13496;DHT22;6820;49.374;8.452;2022-08-19T16:36:44;30.63;73.73
13496;DHT22;6820;49.374;8.452;2022-08-19T16:40:46;30.37;74.29
13496;DHT22;6820;49.374;8.452;2022-08-19T16:44:49;30.23;74.23
13496;DHT22;6820;49.374;8.452;2022-08-19T16:48:50;30.10;75.21
13496;DHT22;6820;49.374;8.452;2022-08-19T16:52:52;29.97;75.94
13496;DHT22;6820;49.374;8.452;2022-08-19T16:56:53;29.89;76.33
13496;DHT22;6820;49.374;8.452;2022-08-19T17:00:56;29.86;76.47
13496;DHT22;6820;49.374;8.452;2022-08-19T17:05:06;29.84;76.57
13496;DHT22;6820;49.374;8.452;2022-08-19T17:09:08;29.86;76.76
13496;DHT22;6820;49.374;8.452;2022-08-19T17:13:10;29.89;76.57
13496;DHT22;6820;49.374;8.452;2022-08-19T17:17:14;29.84;76.67
13496;DHT22;6820;49.374;8.452;2022-08-19T17:21:24;29.73;77.45
13496;DHT22;6820;49.374;8.452;2022-08-19T17:25:28;29.67;78.63
13496;DHT22;6820;49.374;8.452;2022-08-19T17:29:34;29.60;78.05
13496;DHT22;6820;49.374;8.452;2022-08-19T17:33:35;29.51;78.38
13496;DHT22;6820;49.374;8.452;2022-08-19T17:37:41;29.41;78.77
13496;DHT22;6820;49.374;8.452;2022-08-19T17:41:43;29.30;79.36
13496;DHT22;6820;49.374;8.452;2022-08-19T17:45:45;29.20;80.78
13496;DHT22;6820;49.374;8.452;2022-08-19T17:49:46;29.14;81.96
13496;DHT22;6820;49.374;8.452;2022-08-19T17:53:49;29.10;80.72
13496;DHT22;6820;49.374;8.452;2022-08-19T17:57:53;29.07;81.60
13496;DHT22;6820;49.374;8.452;2022-08-19T18:01:55;29.00;82.29
13496;DHT22;6820;49.374;8.452;2022-08-19T18:05:56;28.97;82.10
13496;DHT22;6820;49.374;8.452;2022-08-19T18:09:58;28.92;82.29
13496;DHT22;6820;49.374;8.452;2022-08-19T18:14:02;28.88;82.50
13496;DHT22;6820;49.374;8.452;2022-08-19T18:18:03;28.82;82.83
13496;DHT22;6820;49.374;8.452;2022-08-19T18:22:29;28.76;82.73
13496;DHT22;6820;49.374;8.452;2022-08-19T18:26:37;28.67;82.73
13496;DHT22;6820;49.374;8.452;2022-08-19T18:30:39;28.61;83.26
13496;DHT22;6820;49.374;8.452;2022-08-19T18:34:42;28.57;83.56
13496;DHT22;6820;49.374;8.452;2022-08-19T18:38:46;28.54;83.86
13496;DHT22;6820;49.374;8.452;2022-08-19T18:43:08;28.52;84.05
13496;DHT22;6820;49.374;8.452;2022-08-19T18:47:19;28.50;84.64
13496;DHT22;6820;49.374;8.452;2022-08-19T18:51:40;28.45;85.33
13496;DHT22;6820;49.374;8.452;2022-08-19T18:55:42;28.42;85.14
13496;DHT22;6820;49.374;8.452;2022-08-19T18:59:45;28.36;86.07
13496;DHT22;6820;49.374;8.452;2022-08-19T19:03:49;28.32;86.46
13496;DHT22;6820;49.374;8.452;2022-08-19T19:07:53;28.27;87.15
13496;DHT22;6820;49.374;8.452;2022-08-19T19:11:56;28.21;86.86
13496;DHT22;6820;49.374;8.452;2022-08-19T19:16:00;28.17;86.76
13496;DHT22;6820;49.374;8.452;2022-08-19T19:20:03;28.13;87.00
13496;DHT22;6820;49.374;8.452;2022-08-19T19:24:05;28.06;87.40
13496;DHT22;6820;49.374;8.452;2022-08-19T19:28:09;27.99;87.69
13496;DHT22;6820;49.374;8.452;2022-08-19T19:32:17;27.91;87.69
13496;DHT22;6820;49.374;8.452;2022-08-19T19:36:21;27.83;87.73
13496;DHT22;6820;49.374;8.452;2022-08-19T19:40:24;27.69;87.54
13496;DHT22;6820;49.374;8.452;2022-08-19T19:44:25;27.59;87.28
13496;DHT22;6820;49.374;8.452;2022-08-19T19:48:31;27.43;87.08
13496;DHT22;6820;49.374;8.452;2022-08-19T19:52:32;27.31;85.94
13496;DHT22;6820;49.374;8.452;2022-08-19T19:56:34;27.23;85.35
13496;DHT22;6820;49.374;8.452;2022-08-19T20:00:36;27.15;84.75
13496;DHT22;6820;49.374;8.452;2022-08-19T20:04:37;27.08;84.89
13496;DHT22;6820;49.374;8.452;2022-08-19T20:08:40;26.97;84.79
13496;DHT22;6820;49.374;8.452;2022-08-19T20:13:00;26.88;84.24
13496;DHT22;6820;49.374;8.452;2022-08-19T20:17:03;26.78;84.04
13496;DHT22;6820;49.374;8.452;2022-08-19T20:21:05;26.66;84.24
13496;DHT22;6820;49.374;8.452;2022-08-19T20:25:08;26.60;84.28
13496;DHT22;6820;49.374;8.452;2022-08-19T20:29:15;26.50;84.48
13496;DHT22;6820;49.374;8.452;2022-08-19T20:33:38;26.35;84.88
13496;DHT22;6820;49.374;8.452;2022-08-19T20:37:39;26.23;85.41
13496;DHT22;6820;49.374;8.452;2022-08-19T20:41:41;26.12;85.75
13496;DHT22;6820;49.374;8.452;2022-08-19T20:45:43;26.06;85.94
13496;DHT22;6820;49.374;8.452;2022-08-19T20:49:45;26.01;86.44
13496;DHT22;6820;49.374;8.452;2022-08-19T20:53:46;25.97;86.64
13496;DHT22;6820;49.374;8.452;2022-08-19T20:57:48;25.83;87.28
13496;DHT22;6820;49.374;8.452;2022-08-19T21:01:50;25.76;87.48
13496;DHT22;6820;49.374;8.452;2022-08-19T21:05:53;25.66;87.71
13496;DHT22;6820;49.374;8.452;2022-08-19T21:09:55;25.61;87.52
13496;DHT22;6820;49.374;8.452;2022-08-19T21:13:57;25.59;87.62
13496;DHT22;6820;49.374;8.452;2022-08-19T21:17:59;25.56;87.92
13496;DHT22;6820;49.374;8.452;2022-08-19T21:22:01;25.53;88.11
13496;DHT22;6820;49.374;8.452;2022-08-19T21:26:04;25.49;88.35
13496;DHT22;6820;49.374;8.452;2022-08-19T21:30:05;25.49;88.55
13496;DHT22;6820;49.374;8.452;2022-08-19T21:34:09;25.46;88.75
13496;DHT22;6820;49.374;8.452;2022-08-19T21:38:10;25.45;89.05
13496;DHT22;6820;49.374;8.452;2022-08-19T21:42:12;25.38;89.54
13496;DHT22;6820;49.374;8.452;2022-08-19T21:46:14;25.27;90.04
13496;DHT22;6820;49.374;8.452;2022-08-19T21:50:19;25.20;90.58
13496;DHT22;6820;49.374;8.452;2022-08-19T21:54:21;25.14;90.98
13496;DHT22;6820;49.374;8.452;2022-08-19T21:58:22;25.04;91.58
13496;DHT22;6820;49.374;8.452;2022-08-19T22:02:31;25.01;91.92
13496;DHT22;6820;49.374;8.452;2022-08-19T22:06:32;24.99;92.41
13496;DHT22;6820;49.374;8.452;2022-08-19T22:10:34;24.90;92.81
13496;DHT22;6820;49.374;8.452;2022-08-19T22:14:37;24.82;93.11
13496;DHT22;6820;49.374;8.452;2022-08-19T22:18:39;24.75;93.45
13496;DHT22;6820;49.374;8.452;2022-08-19T22:22:46;24.71;93.65
13496;DHT22;6820;49.374;8.452;2022-08-19T22:26:50;24.67;93.75
13496;DHT22;6820;49.374;8.452;2022-08-19T22:30:52;24.67;93.75
13496;DHT22;6820;49.374;8.452;2022-08-19T22:34:57;24.66;94.05
13496;DHT22;6820;49.374;8.452;2022-08-19T22:38:59;24.66;94.25
13496;DHT22;6820;49.374;8.452;2022-08-19T22:43:03;24.66;94.54
13496;DHT22;6820;49.374;8.452;2022-08-19T22:47:09;24.61;94.95
13496;DHT22;6820;49.374;8.452;2022-08-19T22:51:11;24.59;95.24
13496;DHT22;6820;49.374;8.452;2022-08-19T22:55:33;24.49;95.74
13496;DHT22;6820;49.374;8.452;2022-08-19T22:59:36;24.46;95.98
13496;DHT22;6820;49.374;8.452;2022-08-19T23:03:38;24.46;96.08
13496;DHT22;6820;49.374;8.452;2022-08-19T23:07:40;24.45;96.19
13496;DHT22;6820;49.374;8.452;2022-08-19T23:11:49;24.39;96.58
13496;DHT22;6820;49.374;8.452;2022-08-19T23:15:51;24.36;96.98
13496;DHT22;6820;49.374;8.452;2022-08-19T23:19:53;24.36;97.28
13496;DHT22;6820;49.374;8.452;2022-08-19T23:23:55;24.34;97.67
13496;DHT22;6820;49.374;8.452;2022-08-19T23:27:56;24.23;98.37
13496;DHT22;6820;49.374;8.452;2022-08-19T23:32:17;24.11;98.91
13496;DHT22;6820;49.374;8.452;2022-08-19T23:36:20;24.12;98.72
13496;DHT22;6820;49.374;8.452;2022-08-19T23:40:22;24.12;98.72
13496;DHT22;6820;49.374;8.452;2022-08-19T23:44:24;24.08;98.82
13496;DHT22;6820;49.374;8.452;2022-08-19T23:48:27;24.14;98.96
13496;DHT22;6820;49.374;8.452;2022-08-19T23:52:32;24.16;99.11
13496;DHT22;6820;49.374;8.452;2022-08-19T23:56:42;24.18;99.21
